sensor_id;sensor_type;location;lat;lon;timestamp;P1;durP1;ratioP1;P2;durP2;ratioP2
63259;SDS011;49390;51.380;0.098;2022-07-29T00:03:06;7.45;;;2.60;;
63259;SDS011;49390;51.380;0.098;2022-07-29T00:05:34;6.53;;;2.78;;
63259;SDS011;49390;51.380;0.098;2022-07-29T00:08:03;6.28;;;2.65;;
63259;SDS011;49390;51.380;0.098;2022-07-29T00:10:37;7.60;;;2.70;;
63259;SDS011;49390;51.380;0.098;2022-07-29T00:13:05;6.32;;;2.55;;
63259;SDS011;49390;51.380;0.098;2022-07-29T00:15:35;4.35;;;2.22;;
63259;SDS011;49390;51.380;0.098;2022-07-29T00:18:04;4.85;;;2.70;;
63259;SDS011;49390;51.380;0.098;2022-07-29T00:22:57;5.90;;;2.60;;
63259;SDS011;49390;51.380;0.098;2022-07-29T00:25:25;5.95;;;2.65;;
63259;SDS011;49390;51.380;0.098;2022-07-29T00:27:53;5.97;;;2.97;;
63259;SDS011;49390;51.380;0.098;2022-07-29T00:30:22;6.85;;;2.85;;
63259;SDS011;49390;51.380;0.098;2022-07-29T00:32:50;5.57;;;2.63;;
63259;SDS011;49390;51.380;0.098;2022-07-29T00:35:18;5.00;;;2.83;;
63259;SDS011;49390;51.380;0.098;2022-07-29T00:38:05;4.90;;;2.92;;
63259;SDS011;49390;51.380;0.098;2022-07-29T00:40:34;7.03;;;3.10;;
63259;SDS011;49390;51.380;0.098;2022-07-29T00:43:02;6.30;;;3.10;;
63259;SDS011;49390;51.380;0.098;2022-07-29T00:45:33;7.45;;;3.58;;
63259;SDS011;49390;51.380;0.098;2022-07-29T00:48:01;9.45;;;3.25;;
63259;SDS011;49390;51.380;0.098;2022-07-29T00:50:32;6.07;;;3.13;;
63259;SDS011;49390;51.380;0.098;2022-07-29T00:53:02;4.57;;;2.92;;
63259;SDS011;49390;51.380;0.098;2022-07-29T00:55:31;7.80;;;3.53;;
63259;SDS011;49390;51.380;0.098;2022-07-29T00:57:59;9.65;;;3.63;;
63259;SDS011;49390;51.380;0.098;2022-07-29T01:00:30;6.53;;;3.72;;
63259;SDS011;49390;51.380;0.098;2022-07-29T01:02:58;8.98;;;3.90;;
63259;SDS011;49390;51.380;0.098;2022-07-29T01:05:30;7.85;;;4.07;;
63259;SDS011;49390;51.380;0.098;2022-07-29T01:08:18;10.80;;;4.28;;
63259;SDS011;49390;51.380;0.098;2022-07-29T01:10:47;8.95;;;4.35;;
63259;SDS011;49390;51.380;0.098;2022-07-29T01:13:16;6.45;;;3.72;;
63259;SDS011;49390;51.380;0.098;2022-07-29T01:16:15;7.05;;;4.10;;
63259;SDS011;49390;51.380;0.098;2022-07-29T01:19:00;5.97;;;4.10;;
63259;SDS011;49390;51.380;0.098;2022-07-29T01:21:55;9.10;;;4.85;;
63259;SDS011;49390;51.380;0.098;2022-07-29T01:27:08;8.73;;;4.93;;
63259;SDS011;49390;51.380;0.098;2022-07-29T01:29:55;8.02;;;4.90;;
63259;SDS011;49390;51.380;0.098;2022-07-29T01:32:26;7.70;;;4.75;;
63259;SDS011;49390;51.380;0.098;2022-07-29T01:35:03;8.43;;;4.75;;
63259;SDS011;49390;51.380;0.098;2022-07-29T01:43:16;7.70;;;4.65;;
63259;SDS011;49390;51.380;0.098;2022-07-29T01:45:48;9.25;;;4.57;;
63259;SDS011;49390;51.380;0.098;2022-07-29T01:48:31;9.73;;;4.75;;
63259;SDS011;49390;51.380;0.098;2022-07-29T01:51:16;6.30;;;4.40;;
63259;SDS011;49390;51.380;0.098;2022-07-29T01:56:20;7.35;;;4.20;;
63259;SDS011;49390;51.380;0.098;2022-07-29T01:58:52;7.53;;;4.75;;
63259;SDS011;49390;51.380;0.098;2022-07-29T02:01:22;6.53;;;4.05;;
63259;SDS011;49390;51.380;0.098;2022-07-29T02:03:53;7.00;;;4.32;;
63259;SDS011;49390;51.380;0.098;2022-07-29T02:06:24;7.13;;;3.75;;
63259;SDS011;49390;51.380;0.098;2022-07-29T02:08:53;8.43;;;4.63;;
63259;SDS011;49390;51.380;0.098;2022-07-29T02:11:26;7.70;;;4.32;;
63259;SDS011;49390;51.380;0.098;2022-07-29T02:13:54;6.65;;;4.10;;
63259;SDS011;49390;51.380;0.098;2022-07-29T02:18:56;5.82;;;4.15;;
63259;SDS011;49390;51.380;0.098;2022-07-29T02:21:29;8.27;;;4.03;;
63259;SDS011;49390;51.380;0.098;2022-07-29T02:23:59;6.38;;;3.80;;
63259;SDS011;49390;51.380;0.098;2022-07-29T02:26:29;6.00;;;4.27;;
63259;SDS011;49390;51.380;0.098;2022-07-29T02:29:01;7.00;;;4.18;;
63259;SDS011;49390;51.380;0.098;2022-07-29T02:31:31;6.75;;;3.90;;
63259;SDS011;49390;51.380;0.098;2022-07-29T02:34:03;8.50;;;4.30;;
63259;SDS011;49390;51.380;0.098;2022-07-29T02:36:35;7.25;;;3.95;;
63259;SDS011;49390;51.380;0.098;2022-07-29T02:39:05;6.30;;;3.80;;
63259;SDS011;49390;51.380;0.098;2022-07-29T02:41:39;7.18;;;3.60;;
63259;SDS011;49390;51.380;0.098;2022-07-29T02:44:19;6.93;;;4.10;;
63259;SDS011;49390;51.380;0.098;2022-07-29T02:49:32;7.47;;;3.38;;
63259;SDS011;49390;51.380;0.098;2022-07-29T02:55:14;7.93;;;3.88;;
63259;SDS011;49390;51.380;0.098;2022-07-29T03:01:03;6.70;;;3.20;;
63259;SDS011;49390;51.380;0.098;2022-07-29T03:03:36;6.90;;;3.63;;
63259;SDS011;49390;51.380;0.098;2022-07-29T03:06:06;7.25;;;3.30;;
63259;SDS011;49390;51.380;0.098;2022-07-29T03:08:56;5.72;;;3.40;;
63259;SDS011;49390;51.380;0.098;2022-07-29T03:11:27;7.30;;;3.03;;
63259;SDS011;49390;51.380;0.098;2022-07-29T03:14:16;7.38;;;3.55;;
63259;SDS011;49390;51.380;0.098;2022-07-29T03:16:48;6.63;;;3.60;;
63259;SDS011;49390;51.380;0.098;2022-07-29T03:19:17;6.18;;;3.38;;
63259;SDS011;49390;51.380;0.098;2022-07-29T03:21:47;8.65;;;3.13;;
63259;SDS011;49390;51.380;0.098;2022-07-29T03:24:29;8.20;;;3.35;;
63259;SDS011;49390;51.380;0.098;2022-07-29T03:27:00;7.28;;;3.22;;
63259;SDS011;49390;51.380;0.098;2022-07-29T03:29:29;9.80;;;3.15;;
63259;SDS011;49390;51.380;0.098;2022-07-29T03:32:01;6.90;;;3.20;;
63259;SDS011;49390;51.380;0.098;2022-07-29T03:34:36;8.23;;;3.30;;
63259;SDS011;49390;51.380;0.098;2022-07-29T03:37:05;6.03;;;2.78;;
63259;SDS011;49390;51.380;0.098;2022-07-29T03:39:36;7.38;;;2.97;;
63259;SDS011;49390;51.380;0.098;2022-07-29T03:42:08;6.63;;;3.25;;
63259;SDS011;49390;51.380;0.098;2022-07-29T03:44:41;7.07;;;3.50;;
63259;SDS011;49390;51.380;0.098;2022-07-29T03:47:12;5.85;;;3.28;;
63259;SDS011;49390;51.380;0.098;2022-07-29T03:49:42;5.90;;;3.38;;
63259;SDS011;49390;51.380;0.098;2022-07-29T03:52:14;7.32;;;3.50;;
63259;SDS011;49390;51.380;0.098;2022-07-29T03:54:42;5.35;;;3.17;;
63259;SDS011;49390;51.380;0.098;2022-07-29T03:57:11;6.30;;;3.50;;
63259;SDS011;49390;51.380;0.098;2022-07-29T03:59:40;5.90;;;3.25;;
63259;SDS011;49390;51.380;0.098;2022-07-29T04:02:10;8.60;;;3.42;;
63259;SDS011;49390;51.380;0.098;2022-07-29T04:04:42;5.70;;;3.20;;
63259;SDS011;49390;51.380;0.098;2022-07-29T04:07:11;6.75;;;3.35;;
63259;SDS011;49390;51.380;0.098;2022-07-29T04:09:40;6.95;;;3.60;;
63259;SDS011;49390;51.380;0.098;2022-07-29T04:12:09;6.93;;;3.70;;
63259;SDS011;49390;51.380;0.098;2022-07-29T04:14:37;6.15;;;3.70;;
63259;SDS011;49390;51.380;0.098;2022-07-29T04:17:05;6.28;;;3.40;;
63259;SDS011;49390;51.380;0.098;2022-07-29T04:19:34;9.48;;;3.55;;
63259;SDS011;49390;51.380;0.098;2022-07-29T04:22:02;7.25;;;3.88;;
63259;SDS011;49390;51.380;0.098;2022-07-29T04:24:30;5.93;;;3.58;;
63259;SDS011;49390;51.380;0.098;2022-07-29T04:26:58;9.43;;;4.25;;
63259;SDS011;49390;51.380;0.098;2022-07-29T04:29:26;7.35;;;3.90;;
63259;SDS011;49390;51.380;0.098;2022-07-29T04:31:54;7.05;;;3.65;;
63259;SDS011;49390;51.380;0.098;2022-07-29T04:34:22;8.85;;;3.58;;
63259;SDS011;49390;51.380;0.098;2022-07-29T04:36:55;7.47;;;3.97;;
63259;SDS011;49390;51.380;0.098;2022-07-29T04:39:23;6.47;;;3.70;;
63259;SDS011;49390;51.380;0.098;2022-07-29T04:41:56;7.43;;;3.38;;
63259;SDS011;49390;51.380;0.098;2022-07-29T04:44:25;6.45;;;3.50;;
63259;SDS011;49390;51.380;0.098;2022-07-29T04:46:55;6.50;;;3.40;;
63259;SDS011;49390;51.380;0.098;2022-07-29T04:49:24;7.35;;;3.78;;
63259;SDS011;49390;51.380;0.098;2022-07-29T04:51:53;7.93;;;3.30;;
63259;SDS011;49390;51.380;0.098;2022-07-29T04:54:21;7.22;;;3.55;;
63259;SDS011;49390;51.380;0.098;2022-07-29T04:56:50;7.65;;;3.80;;
63259;SDS011;49390;51.380;0.098;2022-07-29T04:59:18;7.47;;;4.35;;
63259;SDS011;49390;51.380;0.098;2022-07-29T05:01:46;7.88;;;3.70;;
63259;SDS011;49390;51.380;0.098;2022-07-29T05:04:14;7.18;;;3.67;;
63259;SDS011;49390;51.380;0.098;2022-07-29T05:06:43;7.85;;;3.90;;
63259;SDS011;49390;51.380;0.098;2022-07-29T05:09:11;9.68;;;3.65;;
63259;SDS011;49390;51.380;0.098;2022-07-29T05:11:41;7.75;;;3.60;;
63259;SDS011;49390;51.380;0.098;2022-07-29T05:14:09;8.23;;;3.95;;
63259;SDS011;49390;51.380;0.098;2022-07-29T05:16:37;6.30;;;3.85;;
63259;SDS011;49390;51.380;0.098;2022-07-29T05:19:07;6.78;;;3.78;;
63259;SDS011;49390;51.380;0.098;2022-07-29T05:21:41;7.00;;;3.80;;
63259;SDS011;49390;51.380;0.098;2022-07-29T05:24:09;5.50;;;3.70;;
63259;SDS011;49390;51.380;0.098;2022-07-29T05:26:37;6.50;;;4.07;;
63259;SDS011;49390;51.380;0.098;2022-07-29T05:29:06;7.43;;;3.85;;
63259;SDS011;49390;51.380;0.098;2022-07-29T05:31:54;6.28;;;3.78;;
63259;SDS011;49390;51.380;0.098;2022-07-29T05:34:22;9.25;;;3.97;;
63259;SDS011;49390;51.380;0.098;2022-07-29T05:36:52;8.70;;;4.05;;
63259;SDS011;49390;51.380;0.098;2022-07-29T05:39:21;7.60;;;3.95;;
63259;SDS011;49390;51.380;0.098;2022-07-29T05:42:09;8.38;;;4.20;;
63259;SDS011;49390;51.380;0.098;2022-07-29T05:44:38;10.57;;;4.63;;
63259;SDS011;49390;51.380;0.098;2022-07-29T05:47:06;6.47;;;4.32;;
63259;SDS011;49390;51.380;0.098;2022-07-29T05:49:34;9.80;;;4.68;;
63259;SDS011;49390;51.380;0.098;2022-07-29T05:52:03;10.05;;;4.15;;
63259;SDS011;49390;51.380;0.098;2022-07-29T05:54:31;10.82;;;4.60;;
63259;SDS011;49390;51.380;0.098;2022-07-29T05:56:59;9.20;;;4.50;;
63259;SDS011;49390;51.380;0.098;2022-07-29T05:59:28;9.13;;;4.53;;
63259;SDS011;49390;51.380;0.098;2022-07-29T06:01:57;8.82;;;4.20;;
63259;SDS011;49390;51.380;0.098;2022-07-29T06:04:28;7.63;;;3.78;;
63259;SDS011;49390;51.380;0.098;2022-07-29T06:06:56;9.35;;;4.00;;
63259;SDS011;49390;51.380;0.098;2022-07-29T06:09:25;9.35;;;3.65;;
63259;SDS011;49390;51.380;0.098;2022-07-29T06:11:53;9.77;;;3.95;;
63259;SDS011;49390;51.380;0.098;2022-07-29T06:14:21;6.32;;;3.42;;
63259;SDS011;49390;51.380;0.098;2022-07-29T06:16:50;7.95;;;3.63;;
63259;SDS011;49390;51.380;0.098;2022-07-29T06:19:23;7.20;;;3.30;;
63259;SDS011;49390;51.380;0.098;2022-07-29T06:21:51;10.40;;;3.40;;
63259;SDS011;49390;51.380;0.098;2022-07-29T06:24:19;6.28;;;3.15;;
63259;SDS011;49390;51.380;0.098;2022-07-29T06:26:47;6.88;;;3.50;;
63259;SDS011;49390;51.380;0.098;2022-07-29T06:29:16;6.88;;;3.20;;
63259;SDS011;49390;51.380;0.098;2022-07-29T06:31:45;15.48;;;6.97;;
63259;SDS011;49390;51.380;0.098;2022-07-29T06:34:13;8.10;;;3.63;;
63259;SDS011;49390;51.380;0.098;2022-07-29T06:36:41;10.20;;;3.55;;
63259;SDS011;49390;51.380;0.098;2022-07-29T06:39:09;6.72;;;3.10;;
63259;SDS011;49390;51.380;0.098;2022-07-29T06:41:38;8.02;;;3.58;;
63259;SDS011;49390;51.380;0.098;2022-07-29T06:44:09;10.82;;;3.60;;
63259;SDS011;49390;51.380;0.098;2022-07-29T06:46:37;7.50;;;3.80;;
63259;SDS011;49390;51.380;0.098;2022-07-29T06:49:07;9.55;;;3.83;;
63259;SDS011;49390;51.380;0.098;2022-07-29T06:51:35;7.32;;;3.20;;
63259;SDS011;49390;51.380;0.098;2022-07-29T06:54:06;5.97;;;3.38;;
63259;SDS011;49390;51.380;0.098;2022-07-29T06:56:34;9.80;;;3.80;;
63259;SDS011;49390;51.380;0.098;2022-07-29T06:59:10;10.00;;;3.90;;
63259;SDS011;49390;51.380;0.098;2022-07-29T07:01:40;10.05;;;3.63;;
63259;SDS011;49390;51.380;0.098;2022-07-29T07:04:10;9.52;;;3.38;;
63259;SDS011;49390;51.380;0.098;2022-07-29T07:06:40;9.93;;;3.58;;
63259;SDS011;49390;51.380;0.098;2022-07-29T07:09:08;8.75;;;3.42;;
63259;SDS011;49390;51.380;0.098;2022-07-29T07:11:37;8.57;;;3.13;;
63259;SDS011;49390;51.380;0.098;2022-07-29T07:14:05;7.95;;;3.10;;
63259;SDS011;49390;51.380;0.098;2022-07-29T07:16:34;11.40;;;3.85;;
63259;SDS011;49390;51.380;0.098;2022-07-29T07:19:03;11.02;;;3.70;;
63259;SDS011;49390;51.380;0.098;2022-07-29T07:21:32;7.80;;;3.78;;
63259;SDS011;49390;51.380;0.098;2022-07-29T07:24:00;9.40;;;3.60;;
63259;SDS011;49390;51.380;0.098;2022-07-29T07:26:28;7.53;;;3.60;;
63259;SDS011;49390;51.380;0.098;2022-07-29T07:28:58;9.35;;;3.53;;
63259;SDS011;49390;51.380;0.098;2022-07-29T07:31:27;9.75;;;3.55;;
63259;SDS011;49390;51.380;0.098;2022-07-29T07:33:55;8.90;;;3.63;;
63259;SDS011;49390;51.380;0.098;2022-07-29T07:36:24;8.27;;;3.50;;
63259;SDS011;49390;51.380;0.098;2022-07-29T07:38:52;8.40;;;3.30;;
63259;SDS011;49390;51.380;0.098;2022-07-29T07:41:20;7.88;;;3.83;;
63259;SDS011;49390;51.380;0.098;2022-07-29T07:43:49;9.68;;;3.95;;
63259;SDS011;49390;51.380;0.098;2022-07-29T07:46:18;7.22;;;3.40;;
63259;SDS011;49390;51.380;0.098;2022-07-29T07:48:46;6.95;;;3.17;;
63259;SDS011;49390;51.380;0.098;2022-07-29T07:51:15;7.65;;;3.30;;
63259;SDS011;49390;51.380;0.098;2022-07-29T07:53:43;7.82;;;3.47;;
63259;SDS011;49390;51.380;0.098;2022-07-29T07:56:12;8.20;;;3.50;;
63259;SDS011;49390;51.380;0.098;2022-07-29T07:58:40;8.70;;;3.17;;
63259;SDS011;49390;51.380;0.098;2022-07-29T08:01:08;9.35;;;3.47;;
63259;SDS011;49390;51.380;0.098;2022-07-29T08:03:37;9.95;;;3.50;;
63259;SDS011;49390;51.380;0.098;2022-07-29T08:06:06;10.52;;;3.88;;
63259;SDS011;49390;51.380;0.098;2022-07-29T08:08:34;9.65;;;3.60;;
63259;SDS011;49390;51.380;0.098;2022-07-29T08:11:05;8.48;;;3.15;;
63259;SDS011;49390;51.380;0.098;2022-07-29T08:13:36;6.60;;;3.13;;
63259;SDS011;49390;51.380;0.098;2022-07-29T08:16:06;5.70;;;2.78;;
63259;SDS011;49390;51.380;0.098;2022-07-29T08:18:44;10.18;;;3.10;;
63259;SDS011;49390;51.380;0.098;2022-07-29T08:21:14;8.40;;;3.20;;
63259;SDS011;49390;51.380;0.098;2022-07-29T08:23:46;7.70;;;3.00;;
63259;SDS011;49390;51.380;0.098;2022-07-29T08:26:26;8.25;;;3.35;;
63259;SDS011;49390;51.380;0.098;2022-07-29T08:28:54;10.45;;;3.50;;
63259;SDS011;49390;51.380;0.098;2022-07-29T08:31:23;8.77;;;3.50;;
63259;SDS011;49390;51.380;0.098;2022-07-29T08:33:51;5.68;;;3.28;;
63259;SDS011;49390;51.380;0.098;2022-07-29T08:36:19;5.63;;;3.17;;
63259;SDS011;49390;51.380;0.098;2022-07-29T08:38:48;5.75;;;2.80;;
63259;SDS011;49390;51.380;0.098;2022-07-29T08:41:18;5.55;;;2.90;;
63259;SDS011;49390;51.380;0.098;2022-07-29T08:43:49;7.55;;;3.40;;
63259;SDS011;49390;51.380;0.098;2022-07-29T08:46:18;9.15;;;4.20;;
63259;SDS011;49390;51.380;0.098;2022-07-29T08:48:47;6.05;;;3.05;;
63259;SDS011;49390;51.380;0.098;2022-07-29T08:51:18;7.80;;;3.53;;
63259;SDS011;49390;51.380;0.098;2022-07-29T08:53:48;5.63;;;3.10;;
63259;SDS011;49390;51.380;0.098;2022-07-29T08:56:18;7.68;;;3.00;;
63259;SDS011;49390;51.380;0.098;2022-07-29T08:58:46;8.40;;;3.88;;
63259;SDS011;49390;51.380;0.098;2022-07-29T09:01:22;7.18;;;3.40;;
63259;SDS011;49390;51.380;0.098;2022-07-29T09:04:10;6.03;;;3.10;;
63259;SDS011;49390;51.380;0.098;2022-07-29T09:06:44;8.88;;;3.15;;
63259;SDS011;49390;51.380;0.098;2022-07-29T09:09:14;7.72;;;3.17;;
63259;SDS011;49390;51.380;0.098;2022-07-29T09:11:45;7.45;;;2.90;;
63259;SDS011;49390;51.380;0.098;2022-07-29T09:14:14;9.27;;;3.30;;
63259;SDS011;49390;51.380;0.098;2022-07-29T09:16:55;5.80;;;2.95;;
63259;SDS011;49390;51.380;0.098;2022-07-29T09:19:25;6.25;;;3.47;;
63259;SDS011;49390;51.380;0.098;2022-07-29T09:22:05;6.53;;;3.47;;
63259;SDS011;49390;51.380;0.098;2022-07-29T09:27:02;8.30;;;4.10;;
63259;SDS011;49390;51.380;0.098;2022-07-29T09:29:58;7.88;;;3.78;;
63259;SDS011;49390;51.380;0.098;2022-07-29T09:32:54;7.85;;;4.15;;
63259;SDS011;49390;51.380;0.098;2022-07-29T09:35:24;11.00;;;4.18;;
63259;SDS011;49390;51.380;0.098;2022-07-29T09:37:53;6.70;;;4.15;;
63259;SDS011;49390;51.380;0.098;2022-07-29T09:40:23;6.95;;;3.47;;
63259;SDS011;49390;51.380;0.098;2022-07-29T09:42:52;6.95;;;3.25;;
63259;SDS011;49390;51.380;0.098;2022-07-29T09:45:28;7.95;;;3.42;;
63259;SDS011;49390;51.380;0.098;2022-07-29T09:48:12;9.60;;;3.63;;
63259;SDS011;49390;51.380;0.098;2022-07-29T09:50:45;8.85;;;3.30;;
63259;SDS011;49390;51.380;0.098;2022-07-29T09:53:34;8.05;;;3.70;;
63259;SDS011;49390;51.380;0.098;2022-07-29T09:56:04;6.55;;;3.40;;
63259;SDS011;49390;51.380;0.098;2022-07-29T09:58:33;7.28;;;3.25;;
63259;SDS011;49390;51.380;0.098;2022-07-29T10:01:02;6.15;;;3.08;;
63259;SDS011;49390;51.380;0.098;2022-07-29T10:03:49;7.28;;;3.15;;
63259;SDS011;49390;51.380;0.098;2022-07-29T10:06:18;6.20;;;3.05;;
63259;SDS011;49390;51.380;0.098;2022-07-29T10:08:47;7.78;;;2.83;;
63259;SDS011;49390;51.380;0.098;2022-07-29T10:11:17;5.40;;;3.10;;
63259;SDS011;49390;51.380;0.098;2022-07-29T10:13:47;7.13;;;2.78;;
63259;SDS011;49390;51.380;0.098;2022-07-29T10:16:16;7.97;;;3.53;;
63259;SDS011;49390;51.380;0.098;2022-07-29T10:18:44;7.88;;;3.30;;
63259;SDS011;49390;51.380;0.098;2022-07-29T10:21:14;10.85;;;3.05;;
63259;SDS011;49390;51.380;0.098;2022-07-29T10:24:03;7.28;;;2.97;;
63259;SDS011;49390;51.380;0.098;2022-07-29T10:26:41;5.10;;;3.08;;
63259;SDS011;49390;51.380;0.098;2022-07-29T10:31:44;9.43;;;3.22;;
63259;SDS011;49390;51.380;0.098;2022-07-29T10:34:27;7.05;;;3.20;;
63259;SDS011;49390;51.380;0.098;2022-07-29T10:37:07;6.45;;;2.70;;
63259;SDS011;49390;51.380;0.098;2022-07-29T10:40:19;7.57;;;2.90;;
63259;SDS011;49390;51.380;0.098;2022-07-29T10:43:19;5.35;;;2.80;;
63259;SDS011;49390;51.380;0.098;2022-07-29T10:45:54;6.25;;;3.35;;
63259;SDS011;49390;51.380;0.098;2022-07-29T10:48:24;7.20;;;3.03;;
63259;SDS011;49390;51.380;0.098;2022-07-29T10:51:00;5.07;;;2.65;;
63259;SDS011;49390;51.380;0.098;2022-07-29T10:53:49;10.52;;;3.13;;
63259;SDS011;49390;51.380;0.098;2022-07-29T10:56:27;6.10;;;2.70;;
63259;SDS011;49390;51.380;0.098;2022-07-29T11:01:49;5.53;;;2.60;;
63259;SDS011;49390;51.380;0.098;2022-07-29T11:07:11;5.05;;;2.80;;
63259;SDS011;49390;51.380;0.098;2022-07-29T11:15:13;8.77;;;3.08;;
63259;SDS011;49390;51.380;0.098;2022-07-29T11:20:30;7.82;;;3.47;;
63259;SDS011;49390;51.380;0.098;2022-07-29T11:23:00;5.15;;;2.80;;
63259;SDS011;49390;51.380;0.098;2022-07-29T11:25:31;7.43;;;2.90;;
63259;SDS011;49390;51.380;0.098;2022-07-29T11:28:19;5.25;;;2.90;;
63259;SDS011;49390;51.380;0.098;2022-07-29T11:30:52;5.95;;;2.78;;
63259;SDS011;49390;51.380;0.098;2022-07-29T11:33:31;4.65;;;2.83;;
63259;SDS011;49390;51.380;0.098;2022-07-29T11:36:21;6.68;;;2.78;;
63259;SDS011;49390;51.380;0.098;2022-07-29T11:39:24;7.30;;;3.20;;
63259;SDS011;49390;51.380;0.098;2022-07-29T11:44:59;7.13;;;3.00;;
63259;SDS011;49390;51.380;0.098;2022-07-29T11:47:55;6.93;;;3.20;;
63259;SDS011;49390;51.380;0.098;2022-07-29T11:50:49;6.90;;;3.47;;
63259;SDS011;49390;51.380;0.098;2022-07-29T11:53:17;7.05;;;3.00;;
63259;SDS011;49390;51.380;0.098;2022-07-29T11:55:46;5.93;;;3.10;;
63259;SDS011;49390;51.380;0.098;2022-07-29T11:58:24;8.10;;;3.28;;
63259;SDS011;49390;51.380;0.098;2022-07-29T12:00:55;4.25;;;2.58;;
63259;SDS011;49390;51.380;0.098;2022-07-29T12:03:31;6.80;;;2.60;;
63259;SDS011;49390;51.380;0.098;2022-07-29T12:06:20;6.03;;;2.80;;
63259;SDS011;49390;51.380;0.098;2022-07-29T12:08:48;5.82;;;2.83;;
63259;SDS011;49390;51.380;0.098;2022-07-29T12:11:17;6.25;;;3.38;;
63259;SDS011;49390;51.380;0.098;2022-07-29T12:13:50;5.05;;;3.10;;
63259;SDS011;49390;51.380;0.098;2022-07-29T12:16:19;6.10;;;2.83;;
63259;SDS011;49390;51.380;0.098;2022-07-29T12:19:00;9.57;;;3.00;;
63259;SDS011;49390;51.380;0.098;2022-07-29T12:24:23;7.22;;;3.10;;
63259;SDS011;49390;51.380;0.098;2022-07-29T12:26:54;5.72;;;2.95;;
63259;SDS011;49390;51.380;0.098;2022-07-29T12:29:24;4.80;;;2.80;;
63259;SDS011;49390;51.380;0.098;2022-07-29T12:32:02;9.35;;;3.58;;
63259;SDS011;49390;51.380;0.098;2022-07-29T12:34:41;7.50;;;3.40;;
63259;SDS011;49390;51.380;0.098;2022-07-29T12:37:11;6.20;;;3.08;;
63259;SDS011;49390;51.380;0.098;2022-07-29T12:39:40;5.18;;;2.88;;
63259;SDS011;49390;51.380;0.098;2022-07-29T12:42:12;7.70;;;3.17;;
63259;SDS011;49390;51.380;0.098;2022-07-29T12:44:48;5.75;;;2.70;;
63259;SDS011;49390;51.380;0.098;2022-07-29T12:47:18;7.13;;;3.10;;
63259;SDS011;49390;51.380;0.098;2022-07-29T12:49:48;5.32;;;3.25;;
63259;SDS011;49390;51.380;0.098;2022-07-29T12:52:24;5.68;;;3.05;;
63259;SDS011;49390;51.380;0.098;2022-07-29T12:54:54;5.00;;;2.90;;
63259;SDS011;49390;51.380;0.098;2022-07-29T12:57:23;5.93;;;2.92;;
63259;SDS011;49390;51.380;0.098;2022-07-29T12:59:59;4.55;;;2.92;;
63259;SDS011;49390;51.380;0.098;2022-07-29T13:02:29;5.10;;;2.88;;
63259;SDS011;49390;51.380;0.098;2022-07-29T13:05:00;7.68;;;2.92;;
63259;SDS011;49390;51.380;0.098;2022-07-29T13:07:29;5.22;;;3.20;;
63259;SDS011;49390;51.380;0.098;2022-07-29T13:10:19;4.93;;;3.05;;
63259;SDS011;49390;51.380;0.098;2022-07-29T13:13:08;6.80;;;3.10;;
63259;SDS011;49390;51.380;0.098;2022-07-29T13:15:41;5.63;;;2.80;;
63259;SDS011;49390;51.380;0.098;2022-07-29T13:18:30;5.10;;;2.90;;
63259;SDS011;49390;51.380;0.098;2022-07-29T13:21:11;6.47;;;2.88;;
63259;SDS011;49390;51.380;0.098;2022-07-29T13:23:41;7.40;;;3.00;;
63259;SDS011;49390;51.380;0.098;2022-07-29T13:26:10;5.25;;;2.80;;
63259;SDS011;49390;51.380;0.098;2022-07-29T13:28:40;7.57;;;3.05;;
63259;SDS011;49390;51.380;0.098;2022-07-29T13:31:11;5.35;;;2.72;;
63259;SDS011;49390;51.380;0.098;2022-07-29T13:33:39;7.45;;;2.72;;
63259;SDS011;49390;51.380;0.098;2022-07-29T13:36:07;5.28;;;2.80;;
63259;SDS011;49390;51.380;0.098;2022-07-29T13:38:35;5.13;;;2.97;;
63259;SDS011;49390;51.380;0.098;2022-07-29T13:41:03;4.57;;;2.63;;
63259;SDS011;49390;51.380;0.098;2022-07-29T13:43:32;5.68;;;2.88;;
63259;SDS011;49390;51.380;0.098;2022-07-29T13:46:00;4.72;;;2.92;;
63259;SDS011;49390;51.380;0.098;2022-07-29T13:48:29;7.88;;;3.28;;
63259;SDS011;49390;51.380;0.098;2022-07-29T13:50:58;11.30;;;3.30;;
63259;SDS011;49390;51.380;0.098;2022-07-29T13:53:26;6.80;;;3.20;;
63259;SDS011;49390;51.380;0.098;2022-07-29T13:55:57;5.75;;;2.90;;
63259;SDS011;49390;51.380;0.098;2022-07-29T13:58:25;6.97;;;3.03;;
63259;SDS011;49390;51.380;0.098;2022-07-29T14:00:55;7.70;;;3.15;;
63259;SDS011;49390;51.380;0.098;2022-07-29T14:03:24;6.03;;;3.03;;
63259;SDS011;49390;51.380;0.098;2022-07-29T14:05:52;5.22;;;2.90;;
63259;SDS011;49390;51.380;0.098;2022-07-29T14:08:20;5.55;;;2.90;;
63259;SDS011;49390;51.380;0.098;2022-07-29T14:10:50;4.97;;;2.60;;
63259;SDS011;49390;51.380;0.098;2022-07-29T14:13:17;10.32;;;3.17;;
63259;SDS011;49390;51.380;0.098;2022-07-29T14:15:52;7.47;;;3.15;;
63259;SDS011;49390;51.380;0.098;2022-07-29T14:18:20;5.78;;;3.00;;
63259;SDS011;49390;51.380;0.098;2022-07-29T14:20:48;6.13;;;3.28;;
63259;SDS011;49390;51.380;0.098;2022-07-29T14:23:18;7.00;;;3.03;;
63259;SDS011;49390;51.380;0.098;2022-07-29T14:25:46;4.65;;;2.72;;
63259;SDS011;49390;51.380;0.098;2022-07-29T14:28:16;5.10;;;3.20;;
63259;SDS011;49390;51.380;0.098;2022-07-29T14:30:44;6.07;;;3.03;;
63259;SDS011;49390;51.380;0.098;2022-07-29T14:33:13;7.85;;;3.35;;
63259;SDS011;49390;51.380;0.098;2022-07-29T14:35:42;5.78;;;2.78;;
63259;SDS011;49390;51.380;0.098;2022-07-29T14:38:10;5.55;;;2.88;;
63259;SDS011;49390;51.380;0.098;2022-07-29T14:40:39;5.95;;;2.70;;
63259;SDS011;49390;51.380;0.098;2022-07-29T14:43:08;5.55;;;2.88;;
63259;SDS011;49390;51.380;0.098;2022-07-29T14:45:37;6.45;;;2.97;;
63259;SDS011;49390;51.380;0.098;2022-07-29T14:48:05;6.75;;;3.10;;
63259;SDS011;49390;51.380;0.098;2022-07-29T14:50:33;6.10;;;3.03;;
63259;SDS011;49390;51.380;0.098;2022-07-29T14:53:02;6.13;;;2.97;;
63259;SDS011;49390;51.380;0.098;2022-07-29T14:55:30;5.65;;;2.60;;
63259;SDS011;49390;51.380;0.098;2022-07-29T14:57:58;9.20;;;2.95;;
63259;SDS011;49390;51.380;0.098;2022-07-29T15:00:36;5.15;;;2.97;;
63259;SDS011;49390;51.380;0.098;2022-07-29T15:03:05;4.78;;;2.90;;
63259;SDS011;49390;51.380;0.098;2022-07-29T15:05:37;6.88;;;3.13;;
63259;SDS011;49390;51.380;0.098;2022-07-29T15:08:06;7.18;;;3.05;;
63259;SDS011;49390;51.380;0.098;2022-07-29T15:10:35;5.93;;;2.92;;
63259;SDS011;49390;51.380;0.098;2022-07-29T15:13:04;6.85;;;2.88;;
63259;SDS011;49390;51.380;0.098;2022-07-29T15:15:32;6.53;;;3.00;;
63259;SDS011;49390;51.380;0.098;2022-07-29T15:18:01;5.53;;;2.95;;
63259;SDS011;49390;51.380;0.098;2022-07-29T15:20:29;4.68;;;2.90;;
63259;SDS011;49390;51.380;0.098;2022-07-29T15:22:57;5.78;;;2.88;;
63259;SDS011;49390;51.380;0.098;2022-07-29T15:25:25;5.93;;;2.83;;
63259;SDS011;49390;51.380;0.098;2022-07-29T15:27:55;5.60;;;3.08;;
63259;SDS011;49390;51.380;0.098;2022-07-29T15:30:29;4.35;;;2.85;;
63259;SDS011;49390;51.380;0.098;2022-07-29T15:33:01;5.30;;;3.30;;
63259;SDS011;49390;51.380;0.098;2022-07-29T15:35:31;4.43;;;2.92;;
63259;SDS011;49390;51.380;0.098;2022-07-29T15:38:07;7.30;;;3.20;;
63259;SDS011;49390;51.380;0.098;2022-07-29T15:40:37;5.93;;;3.03;;
63259;SDS011;49390;51.380;0.098;2022-07-29T15:43:08;5.18;;;2.90;;
63259;SDS011;49390;51.380;0.098;2022-07-29T15:45:40;7.18;;;3.13;;
63259;SDS011;49390;51.380;0.098;2022-07-29T15:48:29;5.30;;;3.08;;
63259;SDS011;49390;51.380;0.098;2022-07-29T15:50:59;5.65;;;3.08;;
63259;SDS011;49390;51.380;0.098;2022-07-29T15:53:30;7.10;;;3.10;;
63259;SDS011;49390;51.380;0.098;2022-07-29T15:55:59;10.32;;;3.28;;
63259;SDS011;49390;51.380;0.098;2022-07-29T15:58:26;4.32;;;2.70;;
63259;SDS011;49390;51.380;0.098;2022-07-29T16:00:55;4.10;;;2.50;;
63259;SDS011;49390;51.380;0.098;2022-07-29T16:03:24;6.53;;;2.83;;
63259;SDS011;49390;51.380;0.098;2022-07-29T16:05:52;5.80;;;2.88;;
63259;SDS011;49390;51.380;0.098;2022-07-29T16:08:20;6.65;;;3.22;;